Time;durP1;ratioP1;P1;durP2;ratioP2;P2;SDS_P1;SDS_P2;PMS_P1;PMS_P2;Temp;Humidity;BMP_temperature;BMP_pressure;BME280_temperature;BME280_humidity;BME280_pressure;Samples;Min_cycle;Max_cycle;Signal;HPM_P1;HPM_P2
2022/08/24 00:00:11;;;;;;;13.77;11.02;;;;;;;21.99;64.33;101614.00;6181083;23;20000;-92
2022/08/24 00:02:36;;;;;;;11.40;10.15;;;;;;;21.99;64.24;101614.00;6209304;23;20429;-91
2022/08/24 00:05:03;;;;;;;14.80;11.32;;;;;;;21.90;65.10;101607.47;6210292;23;20015;-91
2022/08/24 00:07:28;;;;;;;12.65;11.20;;;;;;;21.88;65.21;101594.13;6181844;23;20005;-91
2022/08/24 00:09:54;;;;;;;11.88;10.68;;;;;;;21.71;65.53;101588.31;6181320;23;20019;-92
2022/08/24 00:12:19;;;;;;;15.18;12.48;;;;;;;21.53;66.35;101599.47;6208058;23;20421;-91
2022/08/24 00:14:45;;;;;;;13.32;12.05;;;;;;;21.51;65.99;101596.03;6206362;23;20005;-90
2022/08/24 00:17:10;;;;;;;12.30;11.00;;;;;;;21.65;65.14;101612.03;6207975;23;20078;-92
2022/08/24 00:19:36;;;;;;;12.40;11.23;;;;;;;21.71;64.30;101609.84;6182020;23;20346;-91
2022/08/24 00:22:01;;;;;;;12.77;11.38;;;;;;;21.63;65.09;101603.19;6181686;23;20429;-91
2022/08/24 00:24:27;;;;;;;14.20;11.75;;;;;;;21.68;64.66;101604.69;6206419;23;20479;-92
2022/08/24 00:26:53;;;;;;;11.48;10.43;;;;;;;21.63;64.84;101605.03;6210496;23;20055;-91
2022/08/24 00:29:20;;;;;;;12.05;10.95;;;;;;;21.57;64.69;101605.47;6180625;23;20508;-91
2022/08/24 00:31:46;;;;;;;12.60;11.40;;;;;;;21.54;65.10;101609.28;6180544;23;20012;-91
2022/08/24 00:34:12;;;;;;;12.45;11.25;;;;;;;21.49;64.99;101613.25;6207783;23;20008;-91
2022/08/24 00:36:38;;;;;;;12.48;11.18;;;;;;;21.46;64.81;101617.06;6210173;23;20012;-91
2022/08/24 00:39:06;;;;;;;12.10;10.98;;;;;;;21.46;65.59;101625.13;6209089;23;20012;-92
2022/08/24 00:41:32;;;;;;;13.30;12.00;;;;;;;21.38;65.39;101614.91;6182642;23;20020;-91
2022/08/24 00:44:01;;;;;;;13.15;11.88;;;;;;;21.36;66.20;101621.41;6181431;23;20035;-91
2022/08/24 00:46:41;;;;;;;14.48;12.98;;;;;;;21.14;66.02;101613.97;6181831;23;20040;-92
2022/08/24 00:49:18;;;;;;;13.88;12.20;;;;;;;21.01;66.82;101603.25;6180594;23;20009;-91
2022/08/24 00:52:09;;;;;;;13.02;11.82;;;;;;;21.11;66.00;101606.13;6208573;23;20004;-92
2022/08/24 00:54:40;;;;;;;12.55;11.35;;;;;;;21.20;65.72;101621.59;6208804;23;20013;-91
2022/08/24 00:57:09;;;;;;;13.50;11.93;;;;;;;21.18;66.42;101628.94;6210341;23;20005;-91
2022/08/24 00:59:42;;;;;;;13.77;12.38;;;;;;;21.16;65.66;101609.34;6208307;23;20012;-92
2022/08/24 01:02:13;;;;;;;12.55;11.35;;;;;;;21.20;66.00;101620.75;6208316;23;20000;-92
2022/08/24 01:04:47;;;;;;;12.85;11.60;;;;;;;21.13;65.81;101625.72;6206420;23;20008;-92
2022/08/24 01:07:14;;;;;;;13.18;11.85;;;;;;;21.00;65.72;101624.88;6179965;23;20027;-91
2022/08/24 01:09:39;;;;;;;14.40;12.88;;;;;;;20.96;66.63;101612.63;6208141;23;20447;-91
2022/08/24 01:12:04;;;;;;;14.60;13.27;;;;;;;20.94;67.15;101619.91;6207745;23;20008;-91
2022/08/24 01:14:30;;;;;;;15.02;13.15;;;;;;;20.93;66.96;101607.44;6179662;23;20015;-91
2022/08/24 01:19:47;;;;;;;14.27;12.98;;;;;;;21.03;65.40;101606.69;6207607;23;20204;-92
2022/08/24 01:22:29;;;;;;;12.98;11.88;;;;;;;20.99;65.50;101613.25;6155227;23;20032;-91
2022/08/24 01:24:55;;;;;;;13.32;12.13;;;;;;;20.93;66.31;101621.75;6183475;23;20008;-91
2022/08/24 01:27:21;;;;;;;17.48;14.95;;;;;;;20.78;67.84;101623.69;6207043;23;20035;-92
2022/08/24 01:29:47;;;;;;;14.75;13.35;;;;;;;20.72;67.31;101618.78;6180520;23;20019;-91
2022/08/24 01:32:13;;;;;;;16.30;14.68;;;;;;;20.77;67.77;101629.19;6204707;23;20008;-92
2022/08/24 01:34:38;;;;;;;16.38;13.88;;;;;;;20.75;66.84;101621.25;6206841;23;20011;-92
2022/08/24 01:37:08;;;;;;;14.38;12.85;;;;;;;20.70;66.89;101611.78;6180123;23;20399;-91
2022/08/24 01:39:38;;;;;;;14.60;13.10;;;;;;;20.73;67.25;101616.94;6207789;23;20016;-92
2022/08/24 01:42:04;;;;;;;15.98;14.38;;;;;;;20.61;67.93;101618.63;6180985;23;20425;-92
2022/08/24 01:44:33;;;;;;;16.08;14.57;;;;;;;20.43;68.88;101615.41;6182319;23;20011;-92
2022/08/24 01:47:00;;;;;;;22.17;16.85;;;;;;;20.35;69.66;101615.94;6181773;23;20000;-91
2022/08/24 01:49:31;;;;;;;16.73;13.98;;;;;;;20.45;67.93;101618.84;6208071;23;20011;-91
2022/08/24 01:51:56;;;;;;;16.95;15.25;;;;;;;20.35;69.29;101615.94;6181284;23;20008;-92
2022/08/24 01:54:22;;;;;;;17.35;15.63;;;;;;;20.32;69.41;101608.06;6180300;23;20478;-92
2022/08/24 01:56:47;;;;;;;16.75;13.65;;;;;;;20.35;68.51;101609.69;6209292;23;20009;-92
2022/08/24 01:59:13;;;;;;;16.83;15.02;;;;;;;20.25;67.94;101598.72;6206999;23;20015;-91
2022/08/24 02:01:41;;;;;;;16.63;14.85;;;;;;;20.28;68.81;101605.69;6207068;23;20008;-92
2022/08/24 02:04:07;;;;;;;17.63;14.93;;;;;;;20.16;69.80;101614.63;6208516;23;20009;-92
2022/08/24 02:06:33;;;;;;;20.80;18.48;;;;;;;19.80;72.33;101610.75;6208635;23;20074;-92
2022/08/24 02:08:59;;;;;;;18.73;16.70;;;;;;;19.59;71.53;101596.91;6182892;23;20440;-91
2022/08/24 02:11:26;;;;;;;20.55;18.40;;;;;;;19.59;72.61;101615.69;6181025;23;20024;-91
2022/08/24 02:13:51;;;;;;;20.48;17.60;;;;;;;19.66;71.91;101606.28;6182390;23;20094;-92
2022/08/24 02:16:17;;;;;;;15.18;13.68;;;;;;;19.79;70.33;101609.03;6208730;23;20392;-91
2022/08/24 02:18:42;;;;;;;14.48;12.95;;;;;;;19.84;69.78;101597.03;6208231;23;20329;-91
2022/08/24 02:21:10;;;;;;;16.30;14.20;;;;;;;19.95;69.72;101616.91;6182942;23;20333;-92
2022/08/24 02:23:37;;;;;;;18.05;14.48;;;;;;;19.98;69.63;101617.56;6183410;23;20001;-91
2022/08/24 02:26:08;;;;;;;20.67;15.02;;;;;;;19.88;69.78;101627.22;6208735;23;20013;-91
2022/08/24 02:28:34;;;;;;;18.65;15.93;;;;;;;19.76;70.53;101623.50;6184087;23;20008;-91
2022/08/24 02:31:00;;;;;;;19.30;16.67;;;;;;;19.78;69.96;101620.75;6182989;23;20012;-91
2022/08/24 02:33:25;;;;;;;16.73;15.10;;;;;;;19.78;69.51;101612.69;6182654;23;20004;-91
2022/08/24 02:35:53;;;;;;;15.20;13.70;;;;;;;19.79;69.01;101609.03;6208221;23;20008;-92
2022/08/24 02:38:18;;;;;;;17.48;13.82;;;;;;;19.92;68.75;101631.41;6181275;23;20079;-91
2022/08/24 02:40:44;;;;;;;17.27;14.30;;;;;;;19.88;67.53;101625.38;6180529;23;20510;-91
2022/08/24 02:43:09;;;;;;;19.48;14.65;;;;;;;19.92;68.36;101630.56;6205936;23;20086;-91
2022/08/24 02:45:39;;;;;;;21.48;15.80;;;;;;;19.76;69.69;101636.06;6208315;23;20340;-91
2022/08/24 02:48:05;;;;;;;20.45;16.25;;;;;;;19.86;69.19;101634.47;6181498;23;20147;-92
2022/08/24 02:50:30;;;;;;;15.98;13.10;;;;;;;19.83;69.18;101624.81;6181449;23;20032;-91
2022/08/24 02:52:55;;;;;;;17.27;14.82;;;;;;;19.90;68.81;101632.47;6180252;23;20210;-91
2022/08/24 02:55:20;;;;;;;18.33;16.30;;;;;;;19.92;69.67;101633.25;6180504;23;20020;-91
2022/08/24 02:57:47;;;;;;;16.58;14.85;;;;;;;19.88;69.18;101633.44;6207427;23;20011;-91
2022/08/24 03:00:15;;;;;;;16.98;14.30;;;;;;;19.86;68.65;101627.31;6207379;23;20005;-92
2022/08/24 03:02:41;;;;;;;18.98;15.07;;;;;;;19.81;67.96;101629.41;6207476;23;20005;-92
2022/08/24 03:05:08;;;;;;;20.05;15.57;;;;;;;19.88;68.49;101637.94;6207506;23;20487;-92
2022/08/24 03:07:34;;;;;;;19.67;14.55;;;;;;;19.88;68.01;101630.75;6182658;23;20013;-91
2022/08/24 03:09:59;;;;;;;19.13;15.32;;;;;;;19.81;69.24;101626.75;6181978;23;20011;-91
2022/08/24 03:12:24;;;;;;;21.38;18.23;;;;;;;19.64;70.71;101623.47;6206781;23;20005;-91
2022/08/24 03:14:50;;;;;;;19.08;16.17;;;;;;;19.64;69.53;101621.66;6182561;23;20001;-91
2022/08/24 03:17:15;;;;;;;26.58;20.25;;;;;;;19.54;70.97;101616.00;6181639;23;20096;-92
2022/08/24 03:19:41;;;;;;;17.52;15.45;;;;;;;19.57;69.42;101614.91;6206440;23;20008;-91
2022/08/24 03:22:06;;;;;;;20.48;16.67;;;;;;;19.57;69.87;101618.47;6179960;23;20027;-91
2022/08/24 03:24:32;;;;;;;23.58;17.08;;;;;;;19.62;69.48;101616.34;6180288;23;20016;-91
2022/08/24 03:26:57;;;;;;;19.90;15.77;;;;;;;19.51;68.87;101604.59;6179540;23;20005;-91
2022/08/24 03:29:22;;;;;;;19.23;17.00;;;;;;;19.50;69.51;101606.44;6180354;23;20373;-91
2022/08/24 03:31:48;;;;;;;24.08;18.45;;;;;;;19.49;69.80;101614.56;6178243;23;20015;-90
2022/08/24 03:34:14;;;;;;;22.70;18.27;;;;;;;19.37;70.62;101614.41;6202563;23;20019;-91
2022/08/24 03:36:45;;;;;;;20.10;17.63;;;;;;;19.31;71.40;101624.66;6205507;23;20005;-91
2022/08/24 03:39:10;;;;;;;18.95;14.95;;;;;;;19.22;69.98;101612.72;6179935;23;20010;-92
2022/08/24 03:41:35;;;;;;;17.88;15.98;;;;;;;19.24;70.32;101601.88;6207736;23;20009;-91
2022/08/24 03:44:01;;;;;;;25.65;18.20;;;;;;;19.22;71.90;101609.19;6180312;23;20032;-92
2022/08/24 03:46:28;;;;;;;18.45;16.42;;;;;;;19.21;71.55;101618.16;6180142;23;20008;-91
2022/08/24 03:48:55;;;;;;;21.90;19.55;;;;;;;18.96;73.43;101606.31;6182979;23;20000;-91
2022/08/24 03:51:23;;;;;;;17.20;15.40;;;;;;;18.91;72.59;101610.25;6182870;23;20432;-91
2022/08/24 03:53:50;;;;;;;17.15;15.10;;;;;;;19.01;71.50;101622.09;6210340;23;20467;-91
2022/08/24 03:56:17;;;;;;;23.25;15.48;;;;;;;19.02;70.68;101616.63;6183396;23;20007;-91
2022/08/24 03:58:43;;;;;;;17.88;15.88;;;;;;;19.09;70.48;101627.84;6210395;23;20004;-91
2022/08/24 04:01:10;;;;;;;18.65;15.63;;;;;;;19.14;70.59;101620.38;6181752;23;20009;-91
2022/08/24 04:03:40;;;;;;;16.85;13.63;;;;;;;19.10;70.93;101617.03;6180045;23;20083;-91
2022/08/24 04:06:07;;;;;;;15.07;13.68;;;;;;;19.07;71.85;101619.03;6179272;23;20111;-91
2022/08/24 04:08:33;;;;;;;15.32;13.70;;;;;;;19.15;71.00;101632.81;6206483;23;20036;-91
2022/08/24 04:10:59;;;;;;;17.50;13.70;;;;;;;19.20;69.75;101632.53;6206364;23;20004;-91
2022/08/24 04:13:25;;;;;;;17.77;14.60;;;;;;;19.11;69.48;101624.09;6207229;23;20001;-91
2022/08/24 04:15:51;;;;;;;21.23;15.48;;;;;;;19.11;69.81;101623.25;6205411;23;20036;-91
2022/08/24 04:18:18;;;;;;;25.52;17.17;;;;;;;19.20;70.46;101635.19;6206991;23;20009;-91
2022/08/24 04:20:43;;;;;;;17.88;15.93;;;;;;;19.05;71.46;101621.81;6180137;23;20008;-91
2022/08/24 04:23:10;;;;;;;20.38;14.95;;;;;;;19.02;70.29;101623.81;6182924;23;20009;-91
2022/08/24 04:25:41;;;;;;;18.60;15.10;;;;;;;18.92;71.25;101622.69;6205581;23;20405;-91
2022/08/24 04:28:07;;;;;;;17.17;14.82;;;;;;;18.90;71.87;101613.91;6206864;23;20008;-91
2022/08/24 04:30:32;;;;;;;20.95;16.38;;;;;;;18.99;71.33;101635.63;6205626;23;20080;-92
2022/08/24 04:32:58;;;;;;;15.77;13.38;;;;;;;19.00;70.67;101634.66;6179062;23;20009;-91
2022/08/24 04:35:23;;;;;;;15.13;13.15;;;;;;;18.97;70.52;101636.66;6206437;23;20193;-92
2022/08/24 04:37:48;;;;;;;16.77;14.23;;;;;;;18.90;69.53;101622.78;6180965;23;20063;-91
2022/08/24 04:40:14;;;;;;;16.90;13.82;;;;;;;19.01;69.41;101633.69;6183818;23;20012;-92
2022/08/24 04:42:39;;;;;;;17.70;13.15;;;;;;;19.05;68.54;101629.84;6181928;23;20024;-91
2022/08/24 04:45:05;;;;;;;16.65;14.48;;;;;;;19.11;69.00;101642.00;6181911;23;20001;-90
2022/08/24 04:47:30;;;;;;;18.63;16.65;;;;;;;19.07;69.94;101644.03;6182091;23;20008;-91
2022/08/24 04:49:55;;;;;;;23.40;19.92;;;;;;;19.02;70.66;101643.44;6182360;23;20095;-91
2022/08/24 04:52:21;;;;;;;24.23;19.65;;;;;;;19.01;70.42;101641.72;6181218;23;20015;-90
2022/08/24 04:54:46;;;;;;;19.63;13.80;;;;;;;18.99;69.40;101645.47;6181442;23;20016;-91
2022/08/24 04:57:12;;;;;;;16.20;13.57;;;;;;;18.95;68.88;101643.94;6181557;23;20279;-91
2022/08/24 04:59:38;;;;;;;15.27;13.77;;;;;;;18.83;68.85;101633.00;6208231;23;20000;-91
2022/08/24 05:02:03;;;;;;;16.50;13.38;;;;;;;18.82;69.27;101659.91;6181444;23;20008;-91
2022/08/24 05:04:28;;;;;;;18.45;14.77;;;;;;;18.74;69.95;101652.34;6209010;23;20302;-91
2022/08/24 05:06:54;;;;;;;19.95;16.08;;;;;;;18.82;70.85;101658.09;6181552;23;20008;-90
2022/08/24 05:09:19;;;;;;;17.13;15.25;;;;;;;18.84;70.30;101647.31;6183415;23;20019;-91
2022/08/24 05:11:45;;;;;;;19.80;14.57;;;;;;;18.82;70.12;101641.16;6183870;23;20124;-91
2022/08/24 05:14:10;;;;;;;19.48;14.68;;;;;;;18.90;69.63;101648.72;6209507;23;20005;-91
2022/08/24 05:16:36;;;;;;;19.27;15.77;;;;;;;18.88;70.07;101647.94;6210651;23;20058;-91
2022/08/24 05:19:03;;;;;;;21.52;17.45;;;;;;;18.86;71.05;101646.22;6210881;23;20008;-92
2022/08/24 05:21:29;;;;;;;20.50;17.80;;;;;;;18.68;72.20;101650.00;6183709;23;20612;-91
2022/08/24 05:23:55;;;;;;;22.15;19.70;;;;;;;18.74;72.98;101663.06;6181362;23;20004;-91
2022/08/24 05:26:26;;;;;;;22.85;20.55;;;;;;;18.79;73.37;101660.09;6210260;23;20079;-90
2022/08/24 05:28:58;;;;;;;25.88;21.88;;;;;;;18.58;73.96;101657.75;6211135;23;20004;-91
2022/08/24 05:31:26;;;;;;;32.15;28.65;;;;;;;18.57;76.00;101668.56;6209305;23;20051;-91
2022/08/24 05:33:51;;;;;;;32.42;27.63;;;;;;;18.45;76.90;101664.78;6183492;23;20084;-91
2022/08/24 05:36:30;;;;;;;30.88;27.58;;;;;;;18.53;76.47;101677.72;6183484;23;20031;-91
2022/08/24 05:38:59;;;;;;;27.77;24.38;;;;;;;18.64;74.60;101669.03;6183146;23;20435;-91
2022/08/24 05:41:25;;;;;;;31.00;26.95;;;;;;;18.75;74.90;101655.91;6180895;23;20004;-91
2022/08/24 05:43:51;;;;;;;28.30;25.20;;;;;;;19.01;73.67;101668.53;6181276;23;20009;-91
2022/08/24 05:46:17;;;;;;;33.83;29.00;;;;;;;19.17;73.66;101678.31;6178701;23;20059;-91
2022/08/24 05:48:42;;;;;;;33.08;29.48;;;;;;;19.29;73.88;101674.84;6181832;23;20012;-91
2022/08/24 05:51:10;;;;;;;33.88;27.13;;;;;;;19.35;73.65;101667.28;6180626;23;20015;-91
2022/08/24 05:53:35;;;;;;;29.45;26.25;;;;;;;19.49;73.05;101668.19;6207865;23;20017;-91
2022/08/24 05:56:12;;;;;;;37.15;31.42;;;;;;;19.46;73.16;101650.50;6207365;23;20107;-91
2022/08/24 05:58:38;;;;;;;36.35;32.25;;;;;;;19.67;73.23;101675.09;6181674;23;20035;-91
2022/08/24 06:01:09;;;;;;;41.25;36.20;;;;;;;19.63;74.00;101660.13;6179575;23;20087;-91
2022/08/24 06:03:36;;;;;;;35.05;31.25;;;;;;;19.66;73.33;101653.72;6207029;23;20354;-91
2022/08/24 06:06:03;;;;;;;32.47;29.05;;;;;;;19.88;73.40;101671.00;6180481;23;20091;-93
2022/08/24 06:08:29;;;;;;;32.80;26.95;;;;;;;19.91;73.55;101671.75;6180891;23;20000;-92
2022/08/24 06:10:55;;;;;;;29.30;26.23;;;;;;;20.03;73.22;101684.38;6208105;23;20008;-92
2022/08/24 06:13:21;;;;;;;30.30;27.20;;;;;;;20.06;72.93;101678.81;6181747;23;20336;-91
2022/08/24 06:15:46;;;;;;;38.90;33.42;;;;;;;19.99;74.67;101672.09;6180268;23;20070;-92
2022/08/24 06:18:11;;;;;;;43.03;38.35;;;;;;;20.10;74.57;101681.19;6206690;23;20008;-92
2022/08/24 06:20:40;;;;;;;44.97;37.10;;;;;;;20.17;74.69;101695.03;6181831;23;20455;-92
2022/08/24 06:23:06;;;;;;;50.90;42.42;;;;;;;20.22;76.23;101686.69;6210410;23;19997;-92
2022/08/24 06:28:24;;;;;;;42.25;36.38;;;;;;;20.42;75.28;101691.56;6164135;23;20047;-92
2022/08/24 06:30:50;;;;;;;46.42;41.08;;;;;;;20.60;75.86;101703.75;6209990;23;20452;-92
2022/08/24 06:33:15;;;;;;;47.53;41.42;;;;;;;20.70;74.47;101697.75;6209871;23;20032;-91
2022/08/24 06:35:41;;;;;;;57.13;48.15;;;;;;;20.86;76.66;101701.97;6183050;23;20015;-91
2022/08/24 06:38:06;;;;;;;56.70;48.05;;;;;;;20.87;75.78;101692.94;6182910;23;20004;-90
2022/08/24 06:40:31;;;;;;;54.20;47.90;;;;;;;21.03;76.81;101708.88;6210551;23;20424;-90
2022/08/24 06:43:01;;;;;;;50.75;41.72;;;;;;;21.17;74.20;101709.69;6182778;23;20005;-91
2022/08/24 06:45:26;;;;;;;51.63;43.38;;;;;;;21.21;74.84;101709.38;6208447;23;20008;-90
2022/08/24 06:47:52;;;;;;;56.20;46.17;;;;;;;21.30;74.77;101706.03;6179978;23;20432;-90
2022/08/24 06:50:17;;;;;;;58.35;46.70;;;;;;;21.38;75.21;101711.75;6183100;23;20008;-90
2022/08/24 06:52:42;;;;;;;47.03;40.00;;;;;;;21.48;73.70;101700.34;6181310;23;20016;-91
2022/08/24 06:55:09;;;;;;;54.92;44.15;;;;;;;21.61;73.27;101707.41;6180144;23;20031;-91
2022/08/24 06:57:34;;;;;;;42.50;35.50;;;;;;;21.71;73.24;101698.66;6181870;23;20337;-90
2022/08/24 06:59:59;;;;;;;46.10;41.10;;;;;;;21.77;73.73;101695.50;6181741;23;20009;-90
2022/08/24 07:02:25;;;;;;;51.33;43.65;;;;;;;21.83;73.21;101695.06;6179814;23;20008;-90
2022/08/24 07:04:50;;;;;;;47.58;37.95;;;;;;;22.00;72.76;101707.25;6180781;23;20009;-90
2022/08/24 07:07:16;;;;;;;55.13;42.90;;;;;;;22.08;73.27;101716.50;6180364;23;20521;-89
2022/08/24 07:09:41;;;;;;;46.45;38.58;;;;;;;22.21;72.27;101708.41;6180814;23;20352;-90
2022/08/24 07:12:07;;;;;;;48.80;40.70;;;;;;;22.34;72.06;101717.28;6208088;23;20054;-89
2022/08/24 07:14:32;;;;;;;50.13;40.78;;;;;;;22.38;71.56;101707.97;6179520;23;20096;-89
2022/08/24 07:16:57;;;;;;;53.30;42.35;;;;;;;22.50;71.07;101719.66;6182412;23;20057;-89
2022/08/24 07:19:23;;;;;;;45.35;38.03;;;;;;;22.55;70.63;101709.38;6206488;23;20103;-90
2022/08/24 07:21:49;;;;;;;42.10;37.25;;;;;;;22.69;70.70;101711.00;6181459;23;20470;-88
2022/08/24 07:24:14;;;;;;;45.42;38.03;;;;;;;22.81;69.91;101718.16;6183533;23;19996;-90
2022/08/24 07:26:40;;;;;;;45.42;39.38;;;;;;;22.90;69.58;101717.47;6207798;23;20008;-89
2022/08/24 07:29:13;;;;;;;43.67;37.08;;;;;;;23.14;71.20;101725.47;6182313;23;20000;-89
2022/08/24 07:31:39;;;;;;;40.85;34.55;;;;;;;23.34;69.98;101731.97;6208083;23;20024;-87
2022/08/24 07:34:06;;;;;;;37.28;33.28;;;;;;;23.33;67.02;101716.75;6206774;23;20387;-88
2022/08/24 07:36:33;;;;;;;44.47;34.35;;;;;;;23.41;66.20;101719.69;6183663;23;20317;-87
2022/08/24 07:38:58;;;;;;;39.15;31.88;;;;;;;23.56;66.13;101730.25;6183064;23;20000;-87
2022/08/24 07:41:24;;;;;;;39.08;30.60;;;;;;;23.71;64.66;101728.16;6180958;23;20008;-88
2022/08/24 07:43:51;;;;;;;35.45;29.20;;;;;;;23.87;66.39;101710.56;6181616;23;20039;-88
2022/08/24 07:46:16;;;;;;;37.72;30.52;;;;;;;24.16;64.54;101716.25;6181047;23;20066;-87
2022/08/24 07:48:42;;;;;;;33.55;27.83;;;;;;;24.54;63.03;101728.41;6210155;23;20012;-87
2022/08/24 07:51:13;;;;;;;30.42;27.13;;;;;;;24.93;60.95;101721.41;6180854;23;20027;-88
2022/08/24 07:53:39;;;;;;;33.50;25.25;;;;;;;25.30;58.67;101725.47;6207594;23;20337;-88
2022/08/24 07:56:05;;;;;;;30.67;24.95;;;;;;;25.57;57.01;101720.31;6206818;23;20008;-88
2022/08/24 07:58:30;;;;;;;26.48;23.35;;;;;;;25.99;56.18;101713.88;6209703;23;20011;-87
2022/08/24 08:00:56;;;;;;;26.17;22.92;;;;;;;26.51;54.36;101720.78;6206647;23;20005;-88
2022/08/24 08:03:24;;;;;;;27.17;21.73;;;;;;;26.87;52.72;101721.88;6207171;23;20007;-87
2022/08/24 08:05:55;;;;;;;24.30;19.08;;;;;;;27.09;52.55;101715.28;6206885;23;20310;-88
2022/08/24 08:08:21;;;;;;;26.58;22.23;;;;;;;27.50;51.99;101715.78;6182636;23;20424;-87
2022/08/24 08:10:46;;;;;;;24.25;18.42;;;;;;;27.80;49.91;101732.84;6180351;23;20012;-87
2022/08/24 08:13:11;;;;;;;22.05;18.20;;;;;;;27.91;48.71;101719.03;6210081;23;20015;-87
2022/08/24 08:15:36;;;;;;;19.58;16.05;;;;;;;28.26;49.06;101718.19;6211225;23;20008;-88
2022/08/24 08:18:02;;;;;;;18.55;15.32;;;;;;;28.41;47.91;101719.38;6184088;23;20237;-87
2022/08/24 08:20:27;;;;;;;20.02;15.40;;;;;;;28.68;47.97;101723.00;6184269;23;20095;-87
2022/08/24 08:25:37;;;;;;;14.75;12.52;;;;;;;29.49;44.69;101741.72;6210091;23;20020;-86
2022/08/24 08:28:04;;;;;;;19.00;15.48;;;;;;;29.42;45.86;101740.66;6183110;23;20008;-86
2022/08/24 08:30:30;;;;;;;16.90;13.20;;;;;;;29.24;45.26;101738.03;6210744;23;20035;-86
2022/08/24 08:32:55;;;;;;;15.52;12.98;;;;;;;29.65;45.23;101730.91;6207531;23;20409;-87
2022/08/24 08:35:21;;;;;;;14.95;11.77;;;;;;;30.06;44.26;101727.44;6207249;23;20100;-89
2022/08/24 08:37:47;;;;;;;15.95;10.57;;;;;;;30.62;43.60;101721.19;6180876;23;20534;-87
2022/08/24 08:40:28;;;;;;;12.63;11.05;;;;;;;30.94;42.78;101744.06;6209053;23;20959;-86
2022/08/24 08:43:03;;;;;;;14.57;10.25;;;;;;;31.15;42.29;101729.84;6181037;23;20021;-87
2022/08/24 08:45:38;;;;;;;15.75;9.18;;;;;;;31.40;42.14;101733.41;6207416;23;20383;-86
2022/08/24 08:48:46;;;;;;;13.13;9.13;;;;;;;32.10;41.27;101724.34;6206758;23;20015;-87
2022/08/24 08:51:44;;;;;;;9.35;7.78;;;;;;;32.34;41.00;101731.50;6205259;23;20441;-86
2022/08/24 08:54:56;;;;;;;9.50;7.10;;;;;;;32.87;40.61;101737.91;6208211;23;20028;-86
2022/08/24 08:57:45;;;;;;;7.18;6.38;;;;;;;33.36;38.74;101745.63;6152802;23;20075;-86
2022/08/24 09:00:16;;;;;;;8.73;7.32;;;;;;;33.80;34.94;101736.50;6209693;23;20000;-86
2022/08/24 09:02:54;;;;;;;8.82;7.00;;;;;;;34.23;36.13;101737.47;6209492;23;20005;-88
2022/08/24 09:05:40;;;;;;;12.68;7.68;;;;;;;34.75;34.97;101734.38;6159004;23;20013;-86
2022/08/24 09:08:12;;;;;;;10.82;7.50;;;;;;;34.97;32.43;101734.31;6182689;23;20454;-85
2022/08/24 09:10:55;;;;;;;8.38;6.85;;;;;;;35.97;32.78;101736.56;6182241;23;20012;-87
2022/08/24 09:13:38;;;;;;;8.15;6.80;;;;;;;36.12;32.94;101741.03;6208271;23;20004;-86
2022/08/24 09:16:25;;;;;;;5.32;4.38;;;;;;;35.76;31.73;101744.94;6208562;23;20514;-87
2022/08/24 09:19:05;;;;;;;3.45;2.38;;;;;;;35.55;31.34;101734.06;6182663;23;20004;-87
2022/08/24 09:21:40;;;;;;;3.97;2.72;;;;;;;35.25;31.22;101748.91;6182962;23;20424;-87
2022/08/24 09:24:24;;;;;;;2.67;2.47;;;;;;;34.89;31.80;101739.97;6209544;23;20075;-87
2022/08/24 09:27:16;;;;;;;2.72;2.53;;;;;;;35.00;33.25;101739.44;6210374;23;20035;-87
2022/08/24 09:30:07;;;;;;;3.70;2.42;;;;;;;34.51;33.66;101732.06;6183393;23;20012;-89
2022/08/24 09:32:36;;;;;;;5.72;3.60;;;;;;;34.23;32.76;101741.06;6206444;23;20019;-89
2022/08/24 09:35:05;;;;;;;6.15;3.33;;;;;;;34.04;32.77;101746.31;6180881;23;20153;-89
2022/08/24 09:38:00;;;;;;;5.07;3.22;;;;;;;33.55;35.17;101747.81;6208993;23;20031;-87
2022/08/24 09:40:35;;;;;;;6.38;4.00;;;;;;;32.65;35.91;101750.63;6209319;23;20008;-87
2022/08/24 09:43:09;;;;;;;6.32;4.55;;;;;;;32.13;36.64;101751.31;6183028;23;20424;-88
2022/08/24 09:46:08;;;;;;;5.60;4.45;;;;;;;32.03;37.34;101745.22;6208382;23;20035;-88
2022/08/24 09:48:49;;;;;;;4.60;3.60;;;;;;;32.83;36.62;101742.94;6182843;23;20142;-88
2022/08/24 09:51:37;;;;;;;5.72;3.63;;;;;;;33.92;34.86;101743.22;6209419;23;20005;-88
2022/08/24 09:54:02;;;;;;;5.57;3.60;;;;;;;34.69;32.62;101740.63;6207774;23;20467;-88
2022/08/24 09:56:36;;;;;;;4.40;3.70;;;;;;;35.26;32.03;101734.09;6208836;23;20000;-87
2022/08/24 09:59:19;;;;;;;6.10;4.82;;;;;;;35.47;32.49;101741.41;6209653;23;20039;-88
2022/08/24 10:02:23;;;;;;;6.90;5.55;;;;;;;35.84;32.31;101738.41;6207146;23;20059;-88
2022/08/24 10:05:12;;;;;;;6.20;4.97;;;;;;;35.91;31.48;101740.13;6191961;23;20395;-88
2022/08/24 10:07:54;;;;;;;4.22;3.78;;;;;;;36.05;32.61;101730.03;6210283;23;20004;-87
2022/08/24 10:10:22;;;;;;;4.40;3.70;;;;;;;36.36;31.02;101742.34;6180112;23;20015;-88
2022/08/24 10:13:03;;;;;;;5.03;3.80;;;;;;;36.37;30.26;101736.63;6209255;23;20005;-88
2022/08/24 10:15:49;;;;;;;6.15;4.00;;;;;;;36.34;30.01;101741.72;6207720;23;20000;-88
2022/08/24 10:18:33;;;;;;;4.72;3.10;;;;;;;35.54;30.65;101737.88;6208878;23;20019;-87
2022/08/24 10:21:17;;;;;;;3.40;3.05;;;;;;;35.34;31.24;101719.31;6181487;23;20013;-87
2022/08/24 10:23:53;;;;;;;6.15;2.75;;;;;;;36.08;30.78;101723.25;6182067;23;20047;-87
2022/08/24 10:26:56;;;;;;;3.17;2.60;;;;;;;36.56;30.65;101720.34;6209073;23;20066;-87
2022/08/24 10:29:46;;;;;;;3.15;1.95;;;;;;;36.90;29.45;101720.13;6208397;23;20400;-88
2022/08/24 10:32:36;;;;;;;3.17;2.33;;;;;;;37.09;29.32;101720.31;6210468;23;20008;-88
2022/08/24 10:35:09;;;;;;;2.58;1.92;;;;;;;37.35;28.95;101722.97;6208540;23;20051;-88
2022/08/24 10:41:14;;;;;;;2.40;1.70;;;;;;;37.13;29.21;101727.09;6208611;23;20058;-88
2022/08/24 10:44:02;;;;;;;4.82;2.05;;;;;;;35.42;28.65;101727.41;6209067;23;20428;-87
2022/08/24 10:46:33;;;;;;;3.42;2.03;;;;;;;34.44;31.05;101715.47;6207784;23;19997;-89
2022/08/24 10:49:24;;;;;;;1.83;1.70;;;;;;;33.80;32.99;101717.31;6182678;23;20594;-88
2022/08/24 10:52:27;;;;;;;1.80;1.70;;;;;;;33.76;32.99;101714.09;6208879;23;20012;-89
2022/08/24 10:54:52;;;;;;;4.57;2.13;;;;;;;33.48;32.80;101709.38;6159052;23;20064;-90
2022/08/24 10:57:42;;;;;;;3.65;2.00;;;;;;;33.88;32.69;101712.56;6152346;23;20322;-90
2022/08/24 11:00:15;;;;;;;4.90;2.03;;;;;;;33.98;32.92;101715.88;6174925;23;20005;-90
2022/08/24 11:02:44;;;;;;;2.85;2.05;;;;;;;34.36;32.00;101709.25;6151629;23;20376;-91
2022/08/24 11:05:11;;;;;;;3.42;2.03;;;;;;;34.81;31.75;101707.13;6149864;23;20036;-91
2022/08/24 11:07:53;;;;;;;3.55;2.13;;;;;;;35.03;31.40;101703.31;6150382;23;20464;-89
2022/08/24 11:10:25;;;;;;;2.08;1.92;;;;;;;35.58;29.91;101706.13;6176645;23;20005;-91
2022/08/24 11:12:51;;;;;;;4.60;1.80;;;;;;;35.75;30.31;101691.78;6151076;23;20009;-90
2022/08/24 11:15:22;;;;;;;2.28;2.05;;;;;;;35.54;29.46;101696.63;6153697;23;20032;-90
2022/08/24 11:17:55;;;;;;;3.38;1.60;;;;;;;35.97;29.44;101703.53;6179389;23;19997;-90
2022/08/24 11:20:29;;;;;;;2.30;2.08;;;;;;;35.59;28.13;101689.44;6179398;23;20000;-90
2022/08/24 11:23:04;;;;;;;2.08;1.70;;;;;;;34.86;29.55;101696.38;6177635;23;20348;-91
2022/08/24 11:25:33;;;;;;;1.95;1.58;;;;;;;35.06;31.29;101680.03;6150072;23;20033;-91
2022/08/24 11:28:08;;;;;;;2.10;1.90;;;;;;;35.57;30.00;101690.69;6150599;23;20016;-90
2022/08/24 11:30:38;;;;;;;4.90;2.30;;;;;;;35.54;28.59;101700.22;6152642;23;20473;-90
2022/08/24 11:33:22;;;;;;;2.73;2.53;;;;;;;34.96;30.89;101695.00;6177386;23;20008;-90
2022/08/24 11:35:47;;;;;;;7.38;2.75;;;;;;;35.63;30.62;101681.59;6150183;23;20087;-91